createdAt,value
2024-01-03T00:01:37.249Z,96704.84
2024-01-03T00:05:40.891Z,96710.81
2024-01-03T00:09:42.436Z,96723.56
2024-01-03T00:14:08.361Z,96722.63
2024-01-03T00:18:33.598Z,96727.28
2024-01-03T00:22:37.395Z,96716.06
2024-01-03T00:26:41.981Z,96734.41
2024-01-03T00:30:43.653Z,96728.75
2024-01-03T00:34:47.349Z,96725.75
2024-01-03T00:38:48.954Z,96729.97
2024-01-03T00:42:51.120Z,96734.59
2024-01-03T00:46:54.770Z,96742.22
2024-01-03T00:50:58.093Z,96754.22
2024-01-03T00:54:59.690Z,96734.16
2024-01-03T00:59:01.427Z,96740.47
2024-01-03T01:03:03.071Z,96748.97
2024-01-03T01:07:06.172Z,96759.19
2024-01-03T01:11:07.810Z,96764.75
2024-01-03T01:15:09.629Z,96777.97
2024-01-03T01:19:11.383Z,96778.63
2024-01-03T01:23:14.403Z,96783.47
2024-01-03T01:27:16.025Z,96782.22
2024-01-03T01:31:17.579Z,96777.34
2024-01-03T01:35:19.297Z,96775.38
2024-01-03T01:39:22.254Z,96771.88
2024-01-03T01:43:23.983Z,96787.22
2024-01-03T01:47:27.031Z,96783.97
2024-01-03T01:51:28.786Z,96780.50
2024-01-03T01:55:31.779Z,96775.53
2024-01-03T01:59:34.388Z,96781.31
2024-01-03T02:03:38.063Z,96782.03
2024-01-03T02:07:39.606Z,96781.19
2024-01-03T02:11:48.574Z,96791.72
2024-01-03T02:15:50.104Z,96791.44
2024-01-03T02:19:51.924Z,96791.22
2024-01-03T02:23:54.915Z,96791.41
2024-01-03T02:27:56.418Z,96787.81
2024-01-03T02:31:58.923Z,96784.16
2024-01-03T02:36:00.542Z,96798.66
2024-01-03T02:40:04.014Z,96788.69
2024-01-03T02:44:05.547Z,96796.38
2024-01-03T02:48:08.292Z,96784.72
2024-01-03T02:52:10.070Z,96791.53
2024-01-03T02:56:13.144Z,96779.63
2024-01-03T03:00:15.175Z,96780.41
2024-01-03T03:04:16.745Z,96796.41
2024-01-03T03:08:18.342Z,96791.34
2024-01-03T03:12:21.261Z,96800.25
2024-01-03T03:16:22.905Z,96804.09
2024-01-03T03:20:24.446Z,96809.97
2024-01-03T03:24:25.997Z,96795.19
2024-01-03T03:28:28.876Z,96807.75
2024-01-03T03:32:30.550Z,96804.59
2024-01-03T03:36:32.140Z,96812.59
2024-01-03T03:40:33.709Z,96802.28
2024-01-03T03:44:36.770Z,96805.72
2024-01-03T03:48:38.691Z,96793.56
2024-01-03T03:52:43.240Z,96809.56
2024-01-03T03:56:44.865Z,96805.78
2024-01-03T04:00:48.167Z,96820.88
2024-01-03T04:04:49.748Z,96818.56
2024-01-03T04:08:51.278Z,96816.44
2024-01-03T04:12:52.905Z,96815.44
2024-01-03T04:16:55.840Z,96823.72
2024-01-03T04:20:57.439Z,96826.13
2024-01-03T04:24:58.989Z,96828.16
2024-01-03T04:29:00.530Z,96829.28
2024-01-03T04:33:03.837Z,96828.16
2024-01-03T04:37:05.589Z,96838.28
2024-01-03T04:41:07.389Z,96853.47
2024-01-03T04:45:09.667Z,96853.66
2024-01-03T04:49:12.971Z,96865.19
2024-01-03T04:53:14.679Z,96851.41
2024-01-03T04:57:19.566Z,96844.25
2024-01-03T05:01:22.102Z,96867.16
2024-01-03T05:05:25.024Z,96865.59
2024-01-03T05:09:26.806Z,96864.94
2024-01-03T05:13:28.324Z,96870.53
2024-01-03T05:17:30.099Z,96867.13
2024-01-03T05:21:33.101Z,96871.56
2024-01-03T05:25:34.638Z,96878.03
2024-01-03T05:29:36.312Z,96882.63
2024-01-03T05:33:38.107Z,96894.41
2024-01-03T05:37:41.111Z,96905.19
2024-01-03T05:41:42.706Z,96910.84
2024-01-03T05:45:46.529Z,96911.69
2024-01-03T05:49:48.130Z,96919.34
2024-01-03T05:53:51.111Z,96916.69
2024-01-03T05:57:52.875Z,96922.22
2024-01-03T06:01:56.742Z,96926.34
2024-01-03T06:05:58.599Z,96917.13
2024-01-03T06:10:01.489Z,96918.66
2024-01-03T06:14:03.223Z,96927.34
2024-01-03T06:18:05.270Z,96927.84
2024-01-03T06:22:06.930Z,96942.78
2024-01-03T06:26:12.998Z,96942.78
2024-01-03T06:30:14.823Z,96943.84
2024-01-03T06:34:16.833Z,96946.38
2024-01-03T06:38:18.499Z,96952.91
2024-01-03T06:42:21.408Z,96954.69
2024-01-03T06:46:25.895Z,96965.97
2024-01-03T06:50:27.450Z,96962.78
2024-01-03T06:54:29.020Z,96971.25
2024-01-03T06:58:32.145Z,96968.66
2024-01-03T07:02:34.012Z,96975.72
2024-01-03T07:06:35.676Z,96967.44
2024-01-03T07:10:37.334Z,96962.31
2024-01-03T07:14:42.605Z,96969.22
2024-01-03T07:18:44.980Z,96973.94
2024-01-03T07:22:46.606Z,96983.22
2024-01-03T07:26:48.165Z,96967.00
2024-01-03T07:30:53.434Z,96979.28
2024-01-03T07:34:55.245Z,96984.25
2024-01-03T07:38:56.829Z,96975.97
2024-01-03T07:42:58.363Z,96984.84
2024-01-03T07:47:01.272Z,96977.09
2024-01-03T07:51:02.929Z,96976.28
2024-01-03T07:55:05.157Z,96977.34
2024-01-03T07:59:06.682Z,96975.63
2024-01-03T08:03:09.798Z,96989.63
2024-01-03T08:07:11.538Z,96993.97
2024-01-03T08:11:13.077Z,96988.25
2024-01-03T08:15:14.792Z,96988.34
2024-01-03T08:19:17.783Z,97003.78
2024-01-03T08:23:19.491Z,96995.41
2024-01-03T08:27:21.120Z,97004.91
2024-01-03T08:31:22.824Z,97011.03
2024-01-03T08:35:25.839Z,97010.31
2024-01-03T08:39:27.428Z,97001.44
2024-01-03T08:43:28.939Z,96999.41
2024-01-03T08:47:30.570Z,97006.31
2024-01-03T08:51:33.612Z,97004.16
2024-01-03T08:55:35.200Z,97016.63
2024-01-03T08:59:36.841Z,97008.06
2024-01-03T09:03:39.259Z,97007.13
2024-01-03T09:07:43.841Z,97020.09
2024-01-03T09:11:47.722Z,97011.78
2024-01-03T09:15:49.231Z,97016.63
2024-01-03T09:19:51.586Z,97000.94
2024-01-03T09:23:54.675Z,97012.19
2024-01-03T09:27:56.256Z,97024.25
2024-01-03T09:31:57.801Z,97026.88
2024-01-03T09:35:59.497Z,97042.97
2024-01-03T09:40:02.508Z,97025.56
2024-01-03T09:44:07.132Z,97029.44
2024-01-03T09:48:11.622Z,97033.03
2024-01-03T09:52:15.246Z,97033.63
2024-01-03T09:56:18.333Z,97040.72
2024-01-03T10:00:20.257Z,97034.66
2024-01-03T10:04:21.794Z,97019.28
2024-01-03T10:08:23.349Z,97029.59
2024-01-03T10:12:30.815Z,97022.50
2024-01-03T10:16:32.396Z,97020.47
2024-01-03T10:20:34.048Z,97028.22
2024-01-03T10:24:41.704Z,97022.94
2024-01-03T10:28:44.564Z,97021.09
2024-01-03T10:32:57.598Z,97022.31
2024-01-03T10:36:59.503Z,96997.81
2024-01-03T10:41:01.311Z,97022.31
2024-01-03T10:45:05.144Z,97015.66
2024-01-03T10:49:07.332Z,97004.69
2024-01-03T10:53:09.677Z,96991.09
2024-01-03T10:57:14.910Z,96984.44
2024-01-03T11:01:21.848Z,96978.34
2024-01-03T11:05:34.168Z,96988.25
2024-01-03T11:09:36.085Z,96988.16
2024-01-03T11:13:40.122Z,96980.13
2024-01-03T11:17:43.154Z,96978.97
2024-01-03T11:21:46.101Z,96981.97
2024-01-03T11:25:47.764Z,96977.84
2024-01-03T11:29:49.337Z,96976.97
2024-01-03T11:33:52.349Z,96977.09
2024-01-03T11:37:54.047Z,96975.09
2024-01-03T11:41:59.105Z,96957.16
2024-01-03T11:46:08.720Z,96971.75
2024-01-03T11:50:13.269Z,96950.81
2024-01-03T11:54:14.956Z,96953.91
2024-01-03T11:58:16.479Z,96952.78
2024-01-03T12:02:18.132Z,96939.69
2024-01-03T12:06:21.516Z,96952.91
2024-01-03T12:10:24.277Z,96941.03
2024-01-03T12:14:25.930Z,96936.94
2024-01-03T12:18:27.633Z,96938.13
2024-01-03T12:22:30.593Z,96917.88
2024-01-03T12:26:32.155Z,96931.91
2024-01-03T12:30:34.099Z,96928.09
2024-01-03T12:34:35.916Z,96924.78
2024-01-03T12:38:38.908Z,96919.69
2024-01-03T12:42:42.880Z,96910.00
2024-01-03T12:46:47.373Z,96917.56
2024-01-03T12:50:49.018Z,96905.63
2024-01-03T12:54:51.925Z,96899.88
2024-01-03T12:58:53.785Z,96905.47
2024-01-03T13:02:55.682Z,96902.00
2024-01-03T13:06:57.444Z,96903.13
2024-01-03T13:11:00.320Z,96921.66
2024-01-03T13:15:01.958Z,96920.47
2024-01-03T13:19:03.822Z,96928.03
2024-01-03T13:23:05.614Z,96924.44
2024-01-03T13:27:08.903Z,96922.97
2024-01-03T13:31:14.262Z,96915.19
2024-01-03T13:35:15.784Z,96910.41
2024-01-03T13:39:17.448Z,96914.66
2024-01-03T13:43:20.368Z,96918.13
2024-01-03T13:47:21.986Z,96931.81
2024-01-03T13:51:24.085Z,96930.47
2024-01-03T13:55:26.086Z,96940.94
2024-01-03T13:59:29.037Z,96955.00
2024-01-03T14:03:31.506Z,96943.00
2024-01-03T14:07:33.141Z,96953.63
2024-01-03T14:11:34.645Z,96941.09
2024-01-03T14:15:37.540Z,96951.84
2024-01-03T14:19:39.236Z,96944.84
2024-01-03T14:23:40.773Z,96948.00
2024-01-03T14:27:42.643Z,96944.84
2024-01-03T14:31:45.516Z,96949.81
2024-01-03T14:35:47.065Z,96951.72
2024-01-03T14:39:48.676Z,96965.81
2024-01-03T14:43:50.297Z,96969.25
2024-01-03T14:47:53.401Z,96966.31
2024-01-03T14:51:55.174Z,96960.56
2024-01-03T14:55:57.052Z,96969.13
2024-01-03T14:59:58.651Z,96973.09
2024-01-03T15:04:01.583Z,96973.09
2024-01-03T15:08:03.201Z,96957.31
2024-01-03T15:12:05.341Z,96958.69
2024-01-03T15:16:07.298Z,96955.88
2024-01-03T15:20:11.227Z,96976.75
2024-01-03T15:24:12.801Z,96967.03
2024-01-03T15:28:14.577Z,96972.31
2024-01-03T15:32:16.369Z,96976.75
2024-01-03T15:36:19.308Z,96983.53
2024-01-03T15:40:21.911Z,96974.91
2024-01-03T15:44:23.971Z,96982.19
2024-01-03T15:48:25.809Z,96964.34
2024-01-03T15:52:28.895Z,96981.63
2024-01-03T15:56:30.570Z,96962.88
2024-01-03T16:00:32.154Z,96973.25
2024-01-03T16:04:34.261Z,96972.66
2024-01-03T16:08:37.584Z,96972.88
2024-01-03T16:12:39.185Z,96967.00
2024-01-03T16:16:41.621Z,96956.44
2024-01-03T16:20:43.239Z,96955.41
2024-01-03T16:24:46.325Z,96966.34
2024-01-03T16:28:49.461Z,96958.28
2024-01-03T16:32:51.100Z,96966.22
2024-01-03T16:36:53.108Z,96959.22
2024-01-03T16:40:55.975Z,96964.63
2024-01-03T16:44:57.613Z,96967.09
2024-01-03T16:48:59.301Z,96953.84
2024-01-03T16:53:00.899Z,96957.84
2024-01-03T16:57:04.406Z,96956.06
2024-01-03T17:01:06.003Z,96945.59
2024-01-03T17:05:08.152Z,96946.19
2024-01-03T17:09:12.836Z,96940.13
2024-01-03T17:13:15.784Z,96949.69
2024-01-03T17:17:17.472Z,96949.00
2024-01-03T17:21:19.300Z,96950.22
2024-01-03T17:25:20.801Z,96945.84
2024-01-03T17:29:23.779Z,96953.16
2024-01-03T17:33:25.426Z,96953.28
2024-01-03T17:37:27.055Z,96946.50
2024-01-03T17:41:28.649Z,96950.78
2024-01-03T17:45:31.538Z,96938.88
2024-01-03T17:49:33.414Z,96943.53
2024-01-03T17:53:35.139Z,96943.78
2024-01-03T17:57:36.714Z,96947.13
2024-01-03T18:01:42.946Z,96936.44
2024-01-03T18:05:44.660Z,96929.66
2024-01-03T18:09:46.990Z,96926.47
2024-01-03T18:13:48.557Z,96919.91
2024-01-03T18:17:53.935Z,96922.63
2024-01-03T18:21:55.748Z,96923.25
2024-01-03T18:25:57.312Z,96902.94
2024-01-03T18:29:58.891Z,96915.25
2024-01-03T18:34:01.987Z,96923.31
2024-01-03T18:38:03.886Z,96923.31
2024-01-03T18:42:05.496Z,96921.72
2024-01-03T18:46:07.263Z,96930.81
2024-01-03T18:50:10.809Z,96928.03
2024-01-03T18:54:12.446Z,96919.34
2024-01-03T18:58:14.046Z,96929.06
2024-01-03T19:02:15.599Z,96935.72
2024-01-03T19:06:18.751Z,96928.78
2024-01-03T19:10:20.340Z,96922.75
2024-01-03T19:14:21.826Z,96921.72
2024-01-03T19:18:23.489Z,96923.38
2024-01-03T19:22:26.471Z,96922.81
2024-01-03T19:26:29.624Z,96922.00
2024-01-03T19:30:31.648Z,96914.56
2024-01-03T19:34:33.422Z,96902.28
2024-01-03T19:38:36.328Z,96898.25
2024-01-03T19:42:37.897Z,96904.16
2024-01-03T19:46:39.447Z,96903.63
2024-01-03T19:50:41.849Z,96905.31
2024-01-03T19:54:44.804Z,96901.06
2024-01-03T19:58:46.785Z,96896.34
2024-01-03T20:02:48.295Z,96898.25
2024-01-03T20:06:51.322Z,96916.50
2024-01-03T20:10:54.196Z,96911.22
2024-01-03T20:14:55.951Z,96902.53
2024-01-03T20:18:57.707Z,96891.53
2024-01-03T20:22:59.306Z,96906.56
2024-01-03T20:27:02.240Z,96904.09
2024-01-03T20:31:04.514Z,96903.88
2024-01-03T20:35:07.315Z,96900.56
2024-01-03T20:39:08.958Z,96905.63
2024-01-03T20:43:11.871Z,96893.22
2024-01-03T20:47:13.518Z,96894.78
2024-01-03T20:51:15.504Z,96885.38
2024-01-03T20:55:17.148Z,96890.84
2024-01-03T20:59:21.211Z,96882.22
2024-01-03T21:03:22.856Z,96882.50
2024-01-03T21:07:24.450Z,96886.78
2024-01-03T21:11:25.976Z,96877.47
2024-01-03T21:15:29.097Z,96882.72
2024-01-03T21:19:30.810Z,96869.97
2024-01-03T21:23:32.473Z,96868.50
2024-01-03T21:27:46.285Z,96868.91
2024-01-03T21:31:53.660Z,96873.00
2024-01-03T21:35:55.308Z,96867.91
2024-01-03T21:39:56.927Z,96860.56
2024-01-03T21:43:58.418Z,96866.53
2024-01-03T21:48:04.315Z,96857.56
2024-01-03T21:52:06.611Z,96857.56
2024-01-03T21:56:08.131Z,96835.09
2024-01-03T22:00:10.734Z,96843.63
2024-01-03T22:04:13.833Z,96847.00
2024-01-03T22:08:15.418Z,96856.63
2024-01-03T22:12:17.148Z,96851.53
2024-01-03T22:16:18.831Z,96858.72
2024-01-03T22:20:21.884Z,96857.00
2024-01-03T22:24:23.535Z,96850.22
2024-01-03T22:28:25.116Z,96854.44
2024-01-03T22:32:26.709Z,96855.44
2024-01-03T22:36:29.601Z,96852.72
2024-01-03T22:40:31.141Z,96857.22
2024-01-03T22:44:32.746Z,96853.66
2024-01-03T22:48:34.510Z,96852.69
2024-01-03T22:52:37.472Z,96854.38
2024-01-03T22:56:39.251Z,96862.81
2024-01-03T23:00:42.428Z,96867.91
2024-01-03T23:04:44.057Z,96867.59
2024-01-03T23:08:47.062Z,96862.13
2024-01-03T23:12:48.730Z,96859.06
2024-01-03T23:16:52.229Z,96877.22
2024-01-03T23:20:53.971Z,96862.97
2024-01-03T23:24:57.072Z,96860.28
2024-01-03T23:28:58.613Z,96873.31
2024-01-03T23:33:00.269Z,96866.81
2024-01-03T23:37:01.936Z,96878.81
2024-01-03T23:41:04.886Z,96888.41
2024-01-03T23:45:07.495Z,96879.84
2024-01-03T23:49:09.327Z,96882.91
2024-01-03T23:53:10.932Z,96877.88
2024-01-03T23:57:13.922Z,96888.22
